createdAt,value
2023-03-20T00:00:33.722Z,10.80
2023-03-20T00:03:04.865Z,10.70
2023-03-20T00:05:35.882Z,10.70
2023-03-20T00:08:06.639Z,10.70
2023-03-20T00:10:39.839Z,10.80
2023-03-20T00:13:18.028Z,10.80
2023-03-20T00:15:48.742Z,10.70
2023-03-20T00:18:23.218Z,10.70
2023-03-20T00:20:54.103Z,10.60
2023-03-20T00:23:24.510Z,10.60
2023-03-20T00:25:55.513Z,10.60
2023-03-20T00:28:43.965Z,10.50
2023-03-20T00:31:21.252Z,10.50
2023-03-20T00:33:51.859Z,10.50
2023-03-20T00:36:37.366Z,10.50
2023-03-20T00:39:08.093Z,10.40
2023-03-20T00:41:45.726Z,10.30
2023-03-20T00:44:26.061Z,10.30
2023-03-20T00:46:59.072Z,10.30
2023-03-20T00:49:32.992Z,10.30
2023-03-20T00:52:04.574Z,10.30
2023-03-20T00:54:36.200Z,10.30
2023-03-20T00:57:09.517Z,10.20
2023-03-20T00:59:45.393Z,10.30
2023-03-20T01:02:16.133Z,10.20
2023-03-20T01:04:46.793Z,10.20
2023-03-20T01:07:18.672Z,10.30
2023-03-20T01:09:49.076Z,10.20
2023-03-20T01:12:19.700Z,10.30
2023-03-20T01:14:56.586Z,10.20
2023-03-20T01:17:28.456Z,10.20
2023-03-20T01:19:58.787Z,10.20
2023-03-20T01:22:29.308Z,10.20
2023-03-20T01:24:59.646Z,10.10
2023-03-20T01:27:30.002Z,10.10
2023-03-20T01:30:04.370Z,10.10
2023-03-20T01:32:35.045Z,10.10
2023-03-20T01:35:05.454Z,10.10
2023-03-20T01:37:36.069Z,10.10
2023-03-20T01:40:14.400Z,10.10
2023-03-20T01:42:44.712Z,10.10
2023-03-20T01:45:24.976Z,10.10
2023-03-20T01:47:58.964Z,10.10
2023-03-20T01:50:32.900Z,10.10
2023-03-20T01:53:20.219Z,10.10
2023-03-20T01:55:59.997Z,10.10
2023-03-20T01:58:43.167Z,10.10
2023-03-20T02:01:17.750Z,10.10
2023-03-20T02:03:52.031Z,10.10
2023-03-20T02:06:37.012Z,10.10
2023-03-20T02:09:15.501Z,10.10
2023-03-20T02:11:49.281Z,10.10
2023-03-20T02:14:23.008Z,10.10
2023-03-20T02:17:05.813Z,10.10
2023-03-20T02:20:04.358Z,10.10
2023-03-20T02:23:06.454Z,10.10
2023-03-20T02:26:12.347Z,10.00
2023-03-20T02:29:13.674Z,10.00
2023-03-20T02:32:18.358Z,10.10
2023-03-20T02:35:26.283Z,10.10
2023-03-20T02:38:35.933Z,10.10
2023-03-20T02:41:13.162Z,10.10
2023-03-20T02:43:51.149Z,10.10
2023-03-20T02:46:32.178Z,10.10
2023-03-20T02:49:08.719Z,10.10
2023-03-20T02:51:44.773Z,10.10
2023-03-20T02:54:27.245Z,10.00
2023-03-20T02:57:04.685Z,10.10
2023-03-20T02:59:39.564Z,10.00
2023-03-20T03:02:13.132Z,10.00
2023-03-20T03:04:50.264Z,10.00
2023-03-20T03:07:25.208Z,10.00
2023-03-20T03:10:03.199Z,10.00
2023-03-20T03:12:37.966Z,10.00
2023-03-20T03:15:16.485Z,10.00
2023-03-20T03:17:48.268Z,10.00
2023-03-20T03:20:26.785Z,10.00
2023-03-20T03:22:58.728Z,9.90
2023-03-20T03:25:38.141Z,9.90
2023-03-20T03:28:14.485Z,9.90
2023-03-20T03:30:47.943Z,9.90
2023-03-20T03:33:23.187Z,9.90
2023-03-20T03:35:57.531Z,9.90
2023-03-20T03:38:32.940Z,9.90
2023-03-20T03:41:23.525Z,9.90
2023-03-20T03:44:00.706Z,9.90
2023-03-20T03:46:44.469Z,9.90
2023-03-20T03:49:19.454Z,9.90
2023-03-20T03:51:54.812Z,9.90
2023-03-20T03:54:28.657Z,9.90
2023-03-20T03:57:30.489Z,9.90
2023-03-20T04:00:03.352Z,9.80
2023-03-20T04:02:44.415Z,9.80
2023-03-20T04:05:16.479Z,9.80
2023-03-20T04:07:48.438Z,9.80
2023-03-20T04:10:21.080Z,9.80
2023-03-20T04:12:54.282Z,9.80
2023-03-20T04:15:24.755Z,9.80
2023-03-20T04:17:55.016Z,9.80
2023-03-20T04:20:26.025Z,9.80
2023-03-20T04:22:56.377Z,9.70
2023-03-20T04:25:29.076Z,9.80
2023-03-20T04:28:03.983Z,9.80
2023-03-20T04:30:48.365Z,9.80
2023-03-20T04:33:32.147Z,9.70
2023-03-20T04:36:11.409Z,9.80
2023-03-20T04:38:43.035Z,9.70
2023-03-20T04:41:13.598Z,9.70
2023-03-20T04:43:46.481Z,9.70
2023-03-20T04:46:16.940Z,9.70
2023-03-20T04:48:47.274Z,9.70
2023-03-20T04:51:18.534Z,9.70
2023-03-20T04:53:53.219Z,9.70
2023-03-20T04:56:23.627Z,9.60
2023-03-20T04:58:57.943Z,9.70
2023-03-20T05:01:28.428Z,9.60
2023-03-20T05:04:01.205Z,9.70
2023-03-20T05:06:36.076Z,9.60
2023-03-20T05:09:06.918Z,9.60
2023-03-20T05:11:39.565Z,9.60
2023-03-20T05:14:38.562Z,9.60
2023-03-20T05:17:28.178Z,9.50
2023-03-20T05:20:22.143Z,9.50
2023-03-20T05:23:06.413Z,9.60
2023-03-20T05:26:09.505Z,9.60
2023-03-20T05:28:57.947Z,9.60
2023-03-20T05:31:33.531Z,9.50
2023-03-20T05:34:10.463Z,9.50
2023-03-20T05:37:01.134Z,9.50
2023-03-20T05:39:57.006Z,9.50
2023-03-20T05:42:53.258Z,9.50
2023-03-20T05:45:26.295Z,9.50
2023-03-20T05:48:11.502Z,9.50
2023-03-20T05:50:44.480Z,9.50
2023-03-20T05:53:34.964Z,9.50
2023-03-20T05:56:28.358Z,9.40
2023-03-20T05:59:21.735Z,9.50
2023-03-20T06:02:12.381Z,9.40
2023-03-20T06:04:51.362Z,9.40
2023-03-20T06:07:33.238Z,9.40
2023-03-20T06:10:08.380Z,9.40
2023-03-20T06:12:39.208Z,9.40
2023-03-20T06:15:11.199Z,9.30
2023-03-20T06:17:45.503Z,9.30
2023-03-20T06:20:21.202Z,9.30
2023-03-20T06:22:51.992Z,9.30
2023-03-20T06:25:22.885Z,9.30
2023-03-20T06:27:53.232Z,9.30
2023-03-20T06:30:24.226Z,9.30
2023-03-20T06:32:54.978Z,9.20
2023-03-20T06:35:32.159Z,9.30
2023-03-20T06:38:03.222Z,9.20
2023-03-20T06:40:34.817Z,9.30
2023-03-20T06:43:05.450Z,9.30
2023-03-20T06:45:48.557Z,9.20
2023-03-20T06:48:28.752Z,9.30
2023-03-20T06:51:01.853Z,9.30
2023-03-20T06:53:39.787Z,9.20
2023-03-20T06:56:14.160Z,9.20
2023-03-20T06:58:44.943Z,9.20
2023-03-20T07:01:17.360Z,9.30
2023-03-20T07:03:48.084Z,9.30
2023-03-20T07:06:25.830Z,9.20
2023-03-20T07:08:56.559Z,9.20
2023-03-20T07:11:27.313Z,9.20
2023-03-20T07:13:59.915Z,9.20
2023-03-20T07:16:42.405Z,9.20
2023-03-20T07:19:13.658Z,9.20
2023-03-20T07:21:49.218Z,9.20
2023-03-20T07:24:21.196Z,9.30
2023-03-20T07:26:51.469Z,9.20
2023-03-20T07:29:22.680Z,9.30
2023-03-20T07:31:53.948Z,9.30
2023-03-20T07:34:32.170Z,9.30
2023-03-20T07:37:07.395Z,9.40
2023-03-20T07:39:39.135Z,9.40
2023-03-20T07:42:41.982Z,9.40
2023-03-20T07:45:18.472Z,9.40
2023-03-20T07:47:49.181Z,9.40
2023-03-20T07:50:20.067Z,9.40
2023-03-20T07:52:54.221Z,9.40
2023-03-20T07:55:24.883Z,9.40
2023-03-20T07:57:55.217Z,9.40
2023-03-20T08:00:28.082Z,9.50
2023-03-20T08:02:59.742Z,9.40
2023-03-20T08:05:30.318Z,9.60
2023-03-20T08:08:03.532Z,9.50
2023-03-20T08:10:34.116Z,9.60
2023-03-20T08:13:04.590Z,9.60
2023-03-20T08:15:35.269Z,9.60
2023-03-20T08:18:05.813Z,9.60
2023-03-20T08:20:36.325Z,9.50
2023-03-20T08:23:09.609Z,9.50
2023-03-20T08:25:40.513Z,9.50
2023-03-20T08:28:12.038Z,9.50
2023-03-20T08:30:42.875Z,9.50
2023-03-20T08:33:13.742Z,9.50
2023-03-20T08:35:44.478Z,9.60
2023-03-20T08:38:17.792Z,9.60
2023-03-20T08:40:48.174Z,9.50
2023-03-20T08:43:18.699Z,9.60
2023-03-20T08:45:49.198Z,9.60
2023-03-20T08:48:19.571Z,9.60
2023-03-20T08:50:50.122Z,9.60
2023-03-20T08:53:23.377Z,9.50
2023-03-20T08:55:54.740Z,9.50
2023-03-20T08:58:26.095Z,9.50
2023-03-20T09:00:57.004Z,9.60
2023-03-20T09:03:27.543Z,9.60
2023-03-20T09:05:58.103Z,9.60
2023-03-20T09:08:32.241Z,9.60
2023-03-20T09:11:02.759Z,9.60
2023-03-20T09:13:33.232Z,9.60
2023-03-20T09:16:04.294Z,9.60
2023-03-20T09:18:34.730Z,9.70
2023-03-20T09:21:05.191Z,9.70
2023-03-20T09:23:38.348Z,9.70
2023-03-20T09:26:09.499Z,9.70
2023-03-20T09:28:40.156Z,9.70
2023-03-20T09:31:11.894Z,9.80
2023-03-20T09:33:42.287Z,9.80
2023-03-20T09:36:13.432Z,9.80
2023-03-20T09:38:46.538Z,9.80
2023-03-20T09:41:21.992Z,9.90
2023-03-20T09:44:04.085Z,9.90
2023-03-20T09:46:50.059Z,10.00
2023-03-20T09:49:30.219Z,10.00
2023-03-20T09:52:02.583Z,10.10
2023-03-20T09:54:53.130Z,10.20
2023-03-20T09:57:27.387Z,10.20
2023-03-20T10:00:01.078Z,10.20
2023-03-20T10:02:43.102Z,10.30
2023-03-20T10:05:22.964Z,10.30
2023-03-20T10:07:54.864Z,10.30
2023-03-20T10:10:35.091Z,10.40
2023-03-20T10:13:23.327Z,10.40
2023-03-20T10:16:02.952Z,10.40
2023-03-20T10:18:36.305Z,10.40
2023-03-20T10:21:13.771Z,10.40
2023-03-20T10:23:48.792Z,10.40
2023-03-20T10:26:25.598Z,10.50
2023-03-20T10:29:01.201Z,10.50
2023-03-20T10:31:46.294Z,10.60
2023-03-20T10:34:40.253Z,10.60
2023-03-20T10:37:23.156Z,10.70
2023-03-20T10:40:04.533Z,10.70
2023-03-20T10:42:41.858Z,10.80
2023-03-20T10:45:23.736Z,10.70
2023-03-20T10:47:55.494Z,10.80
2023-03-20T10:50:31.610Z,10.90
2023-03-20T10:53:05.109Z,10.90
2023-03-20T10:55:39.666Z,10.90
2023-03-20T10:58:18.985Z,11.00
2023-03-20T11:00:49.410Z,11.00
2023-03-20T11:03:25.658Z,11.10
2023-03-20T11:06:09.783Z,11.10
2023-03-20T11:08:44.009Z,11.10
2023-03-20T11:11:14.395Z,11.20
2023-03-20T11:13:49.381Z,11.20
2023-03-20T11:16:26.311Z,11.30
2023-03-20T11:18:56.980Z,11.30
2023-03-20T11:21:30.275Z,11.30
2023-03-20T11:24:01.013Z,11.20
2023-03-20T11:26:39.771Z,11.30
2023-03-20T11:29:22.457Z,11.20
2023-03-20T11:31:54.436Z,11.20
2023-03-20T11:34:33.680Z,11.40
2023-03-20T11:37:10.834Z,11.40
2023-03-20T11:39:42.313Z,11.50
2023-03-20T11:42:27.145Z,11.60
2023-03-20T11:45:05.121Z,11.80
2023-03-20T11:47:37.857Z,12.00
2023-03-20T11:50:29.675Z,12.20
2023-03-20T11:53:00.453Z,12.10
2023-03-20T11:55:33.633Z,12.10
2023-03-20T11:58:07.974Z,12.00
2023-03-20T12:00:43.775Z,12.00
2023-03-20T12:03:45.165Z,12.00
2023-03-20T12:06:21.850Z,12.10
2023-03-20T12:08:56.961Z,12.20
2023-03-20T12:11:45.583Z,12.20
2023-03-20T12:14:26.852Z,12.20
2023-03-20T12:17:10.994Z,12.20
2023-03-20T12:19:43.507Z,12.40
2023-03-20T12:22:23.027Z,12.40
2023-03-20T12:25:01.399Z,12.30
2023-03-20T12:27:35.987Z,12.30
2023-03-20T12:30:13.616Z,12.30
2023-03-20T12:32:51.846Z,12.20
2023-03-20T12:35:27.907Z,12.30
2023-03-20T12:37:58.319Z,12.20
2023-03-20T12:40:37.073Z,12.20
2023-03-20T12:43:15.617Z,12.30
2023-03-20T12:45:56.167Z,12.30
2023-03-20T12:48:55.239Z,12.30
2023-03-20T12:51:35.927Z,12.40
2023-03-20T12:54:20.326Z,12.40
2023-03-20T12:57:07.599Z,12.50
2023-03-20T12:59:51.083Z,12.50
2023-03-20T13:02:44.370Z,12.60
2023-03-20T13:05:29.947Z,12.60
2023-03-20T13:08:16.713Z,12.60
2023-03-20T13:10:59.341Z,12.60
2023-03-20T13:13:35.076Z,12.70
2023-03-20T13:16:16.666Z,12.70
2023-03-20T13:18:59.000Z,12.70
2023-03-20T13:21:38.381Z,12.80
2023-03-20T13:24:34.719Z,12.80
2023-03-20T13:27:15.055Z,12.80
2023-03-20T13:29:52.290Z,12.80
2023-03-20T13:32:34.785Z,12.80
2023-03-20T13:35:21.369Z,12.80
2023-03-20T13:37:58.146Z,12.80
2023-03-20T13:40:31.439Z,12.90
2023-03-20T13:43:09.915Z,12.80
2023-03-20T13:45:42.540Z,12.70
2023-03-20T13:48:27.269Z,12.70
2023-03-20T13:51:07.412Z,12.70
2023-03-20T13:53:51.183Z,12.70
2023-03-20T13:56:32.152Z,12.70
2023-03-20T13:59:15.104Z,12.70
2023-03-20T14:01:52.470Z,12.70
2023-03-20T14:04:25.916Z,12.70
2023-03-20T14:06:57.843Z,12.70
2023-03-20T14:09:36.701Z,12.70
2023-03-20T14:12:10.495Z,12.70
2023-03-20T14:14:46.734Z,12.70
2023-03-20T14:17:21.090Z,12.70
2023-03-20T14:19:52.617Z,12.70
2023-03-20T14:22:26.385Z,12.70
2023-03-20T14:25:02.531Z,12.80
2023-03-20T14:27:44.396Z,12.70
2023-03-20T14:30:46.084Z,12.70
2023-03-20T14:33:33.436Z,12.80
2023-03-20T14:36:23.974Z,12.80
2023-03-20T14:39:10.114Z,12.80
2023-03-20T14:42:00.451Z,12.80
2023-03-20T14:44:44.677Z,12.80
2023-03-20T14:47:25.206Z,12.80
2023-03-20T14:50:00.596Z,12.90
2023-03-20T14:52:45.713Z,12.80
2023-03-20T14:55:35.892Z,12.80
2023-03-20T14:58:29.941Z,12.90
2023-03-20T15:01:06.216Z,12.90
2023-03-20T15:03:37.877Z,12.90
2023-03-20T15:06:10.727Z,12.90
2023-03-20T15:08:49.878Z,12.90
2023-03-20T15:11:20.758Z,13.00
2023-03-20T15:13:55.313Z,13.00
2023-03-20T15:16:33.032Z,12.90
2023-03-20T15:19:03.780Z,12.90
2023-03-20T15:21:37.410Z,12.90
2023-03-20T15:24:08.200Z,12.80
2023-03-20T15:26:39.361Z,12.80
2023-03-20T15:29:19.131Z,12.80
2023-03-20T15:32:12.062Z,12.90
2023-03-20T15:34:45.221Z,12.90
2023-03-20T15:37:18.572Z,12.90
2023-03-20T15:39:52.197Z,12.90
2023-03-20T15:42:26.588Z,13.00
2023-03-20T15:44:59.994Z,13.00
2023-03-20T15:47:30.743Z,12.90
2023-03-20T15:50:04.156Z,13.00
2023-03-20T15:52:37.393Z,12.90
2023-03-20T15:55:10.283Z,12.90
2023-03-20T15:57:44.994Z,12.90
2023-03-20T16:00:24.165Z,12.90
2023-03-20T16:02:54.785Z,12.90
2023-03-20T16:05:28.713Z,12.90
2023-03-20T16:07:59.682Z,12.90
2023-03-20T16:10:36.235Z,12.90
2023-03-20T16:13:09.751Z,13.00
2023-03-20T16:15:42.974Z,13.00
2023-03-20T16:18:17.856Z,13.00
2023-03-20T16:20:53.077Z,13.00
2023-03-20T16:23:35.239Z,13.00
2023-03-20T16:26:07.733Z,12.90
2023-03-20T16:28:40.141Z,12.90
2023-03-20T16:31:19.282Z,12.90
2023-03-20T16:33:49.934Z,12.80
2023-03-20T16:36:23.955Z,12.80
2023-03-20T16:39:00.129Z,12.90
2023-03-20T16:41:34.292Z,12.80
2023-03-20T16:44:10.784Z,12.80
2023-03-20T16:46:59.835Z,12.90
2023-03-20T16:50:01.866Z,12.90
2023-03-20T16:52:35.347Z,12.80
2023-03-20T16:55:05.899Z,12.80
2023-03-20T16:57:39.915Z,12.80
2023-03-20T17:00:23.823Z,12.80
2023-03-20T17:03:09.176Z,12.80
2023-03-20T17:05:58.217Z,12.80
2023-03-20T17:08:37.345Z,12.80
2023-03-20T17:11:13.374Z,12.80
2023-03-20T17:13:44.427Z,12.80
2023-03-20T17:16:19.980Z,12.80
2023-03-20T17:19:02.874Z,12.80
2023-03-20T17:21:33.558Z,12.80
2023-03-20T17:24:04.037Z,12.80
2023-03-20T17:26:34.605Z,12.80
2023-03-20T17:29:04.878Z,12.70
2023-03-20T17:31:35.461Z,12.70
2023-03-20T17:34:08.391Z,12.70
2023-03-20T17:36:39.048Z,12.70
2023-03-20T17:39:09.346Z,12.70
2023-03-20T17:41:39.659Z,12.70
2023-03-20T17:44:09.923Z,12.60
2023-03-20T17:46:56.751Z,12.70
2023-03-20T17:49:30.538Z,12.60
2023-03-20T17:52:00.888Z,12.60
2023-03-20T17:54:31.504Z,12.60
2023-03-20T17:57:01.839Z,12.50
2023-03-20T17:59:32.475Z,12.60
2023-03-20T18:02:02.915Z,12.60
2023-03-20T18:04:36.240Z,12.60
2023-03-20T18:07:07.264Z,12.60
2023-03-20T18:09:37.611Z,12.50
2023-03-20T18:12:08.574Z,12.50
2023-03-20T18:14:38.805Z,12.50
2023-03-20T18:17:09.592Z,12.60
2023-03-20T18:19:42.856Z,12.50
2023-03-20T18:22:13.248Z,12.60
2023-03-20T18:24:48.872Z,12.50
2023-03-20T18:27:19.359Z,12.50
2023-03-20T18:29:49.692Z,12.40
2023-03-20T18:32:21.827Z,12.40
2023-03-20T18:34:55.016Z,12.50
2023-03-20T18:37:25.462Z,12.50
2023-03-20T18:40:01.660Z,12.50
2023-03-20T18:42:31.999Z,12.50
2023-03-20T18:45:02.350Z,12.50
2023-03-20T18:47:32.626Z,12.50
2023-03-20T18:50:07.265Z,12.50
2023-03-20T18:52:37.850Z,12.50
2023-03-20T18:55:08.681Z,12.50
2023-03-20T18:57:43.032Z,12.50
2023-03-20T19:00:26.128Z,12.50
2023-03-20T19:02:58.079Z,12.50
2023-03-20T19:05:32.521Z,12.60
2023-03-20T19:08:04.066Z,12.60
2023-03-20T19:10:38.144Z,12.50
2023-03-20T19:13:11.038Z,12.50
2023-03-20T19:15:42.497Z,12.50
2023-03-20T19:18:19.725Z,12.60
2023-03-20T19:20:55.693Z,12.60
2023-03-20T19:23:29.310Z,12.60
2023-03-20T19:26:00.226Z,12.60
2023-03-20T19:28:40.713Z,12.50
2023-03-20T19:31:13.543Z,12.50
2023-03-20T19:33:45.135Z,12.60
2023-03-20T19:36:37.784Z,12.50
2023-03-20T19:39:10.527Z,12.50
2023-03-20T19:41:41.487Z,12.50
2023-03-20T19:44:12.099Z,12.50
2023-03-20T19:46:43.195Z,12.50
2023-03-20T19:49:20.905Z,12.50
2023-03-20T19:51:54.597Z,12.50
2023-03-20T19:54:25.217Z,12.50
2023-03-20T19:56:57.565Z,12.50
2023-03-20T19:59:32.737Z,12.50
2023-03-20T20:02:04.138Z,12.50
2023-03-20T20:04:35.956Z,12.50
2023-03-20T20:07:53.078Z,12.50
2023-03-20T20:10:00.515Z,12.50
2023-03-20T20:12:31.452Z,12.50
2023-03-20T20:15:03.756Z,12.50
2023-03-20T20:17:34.989Z,12.50
2023-03-20T20:20:09.624Z,12.50
2023-03-20T20:22:44.257Z,12.50
2023-03-20T20:25:16.865Z,12.40
2023-03-20T20:27:48.509Z,12.50
2023-03-20T20:30:21.512Z,12.50
2023-03-20T20:32:52.630Z,12.50
2023-03-20T20:36:01.259Z,12.40
2023-03-20T20:38:40.929Z,12.50
2023-03-20T20:41:12.256Z,12.50
2023-03-20T20:44:14.092Z,12.40
2023-03-20T20:46:35.163Z,12.50
2023-03-20T20:49:18.367Z,12.40
2023-03-20T20:51:50.238Z,12.40
2023-03-20T20:54:23.539Z,12.40
2023-03-20T20:56:55.214Z,12.40
2023-03-20T20:59:27.607Z,12.40
2023-03-20T21:01:58.589Z,12.40
2023-03-20T21:04:29.611Z,12.40
2023-03-20T21:07:10.004Z,12.20
2023-03-20T21:09:44.842Z,12.30
2023-03-20T21:12:30.700Z,12.40
2023-03-20T21:15:05.073Z,12.40
2023-03-20T21:17:36.425Z,12.30
2023-03-20T21:20:08.061Z,12.30
2023-03-20T21:22:40.583Z,12.30
2023-03-20T21:25:18.655Z,12.30
2023-03-20T21:27:50.628Z,12.30
2023-03-20T21:30:21.739Z,12.30
2023-03-20T21:32:53.268Z,12.20
2023-03-20T21:35:23.611Z,12.30
2023-03-20T21:40:47.511Z,12.30
2023-03-20T21:43:19.160Z,12.30
2023-03-20T21:46:27.911Z,12.20
2023-03-20T21:49:29.977Z,12.20
2023-03-20T21:52:30.551Z,12.20
2023-03-20T21:58:00.225Z,12.30
2023-03-20T22:03:02.924Z,12.30
2023-03-20T22:09:45.091Z,12.20
2023-03-20T22:14:58.951Z,12.10
2023-03-20T22:19:08.613Z,12.10
2023-03-20T22:32:02.119Z,12.10
2023-03-20T22:37:53.314Z,12.10
2023-03-20T22:43:26.515Z,12.10
2023-03-20T22:45:43.075Z,12.20
2023-03-20T22:48:20.525Z,12.20
2023-03-20T22:50:51.314Z,12.10
2023-03-20T22:53:21.988Z,12.20
2023-03-20T22:55:54.580Z,12.10
2023-03-20T22:58:25.190Z,12.20
2023-03-20T23:00:55.584Z,12.20
2023-03-20T23:03:41.097Z,12.20
2023-03-20T23:06:18.231Z,12.20
2023-03-20T23:08:54.611Z,12.20
2023-03-20T23:11:27.721Z,12.20
2023-03-20T23:13:58.170Z,12.20
2023-03-20T23:16:28.474Z,12.20
2023-03-20T23:19:01.462Z,12.20
2023-03-20T23:21:31.799Z,12.20
2023-03-20T23:24:02.163Z,12.20
2023-03-20T23:26:32.546Z,12.20
2023-03-20T23:29:03.552Z,12.30
2023-03-20T23:31:33.994Z,12.20
2023-03-20T23:34:06.961Z,12.20
2023-03-20T23:36:37.839Z,12.20
2023-03-20T23:39:08.983Z,12.20
2023-03-20T23:42:09.932Z,12.30
2023-03-20T23:44:29.683Z,12.20
2023-03-20T23:47:03.289Z,12.30
2023-03-20T23:49:39.875Z,12.20
2023-03-20T23:52:14.959Z,12.20
2023-03-20T23:54:45.776Z,12.30
2023-03-20T23:57:16.839Z,12.20
2023-03-20T23:59:47.348Z,12.30
